AirNav   Everest Fuels
 
 608 users online  

FL38 Care Flight Heliport
Tampa, Florida, USA

GOING TO TAMPA?


FAA INFORMATION EFFECTIVE 05 DECEMBER 2019

Location

FAA Identifier: FL38
Lat/Long: 27-58-55.0720N 082-29-29.3420W
27-58.917867N 082-29.489033W
27.9819644,-82.4914839
(estimated)
Elevation: 29 ft. / 9 m (estimated)
Variation: 02W (1985)
Time zone: UTC -5 (UTC -4 during Daylight Saving Time)
Zip code: 33614

Heliport Operations

Heliport use: Private use, MEDICAL.
Activation date: 09/1977
Control tower: no
ARTCC: MIAMI CENTER
FSS: SAINT PETERSBURG FLIGHT SERVICE STATION
Attendance: CONTINUOUS
Wind indicator: yes
Segmented circle: no
Beacon: white-green-yellow (heliport)
Operates sunset to sunrise.

Heliport Communications

UNICOM: 123.05
WX ASOS at TPA (2.2 nm W): PHONE 813-873-7228
WX AWOS-3 at TPF (5 nm SE): 118.925 (813-251-6824)
WX AWOS-3 at VDF (8 nm E): 121.125 (813-630-0924)
WX ASOS at PIE (11 nm SW): PHONE 727-531-3456
WX AWOS-3P at CLW (14 nm W): 119.225 (727-449-2184)
WX ASOS at SPG (15 nm SW): 118.875 (727-821-4334)
WX AWOS-3 at PCM (17 nm E): 120.025 (813-764-8259)

Nearby radio navigation aids

VOR radial/distance  VOR name  Freq  Var
PIEr071/11.1ST PETERSBURG VORTAC116.4005W
LALr268/25.3LAKELAND VORTAC116.0001E
SRQr011/34.7SARASOTA VOR/DME117.0005W

 
NDB name  Hdg/Dist  Freq  Var  ID
COSME169/6.536805WTP - .--.
CAPOK099/11.336005WPI .--. ..

Heliport Services

Runway Information

Helipad H1

Dimensions: 80 x 40 ft. / 24 x 12 m
Surface: concrete
Latitude: 27-58.948333N
Longitude: 082-29.628333W
Elevation: 29.0 ft.
Traffic pattern: leftleft

Helipad H2

Dimensions: 40 x 40 ft. / 12 x 12 m
Surface: concrete
Traffic pattern: leftleft

Heliport Ownership and Management from official FAA records

Ownership: Privately-owned
Owner: ST. JOSEPH'S HOSPITAL
3001 WEST M. L. KING BLVD
TAMPA, FL 33607
Phone 813-870-4445
Manager: GIL LEAN
3001 WEST M. L. KING BLVD
TAMPA, FL 33607
Phone 813-554-8213

Heliport Operational Statistics

Aircraft based on the field: 2
Single engine airplanes: 1
Helicopters: 1
    

Additional Remarks

A52-H1 84' BLDG(LGTD) 168' FROM LDG PAD
FOR CD CTC TAMPA APCH AT 813-878-2528.

Instrument Procedures

There are no published instrument procedures at FL38.

Some nearby airports with instrument procedures:

KTPA - Tampa International Airport (2 nm W)
KTPF - Peter O Knight Airport (5 nm SE)
KVDF - Tampa Executive Airport (8 nm E)
KMCF - MacDill Air Force Base (8 nm S)
KPIE - St Pete-Clearwater International Airport (11 nm SW)
KCLW - Clearwater Air Park (14 nm W)
KSPG - Albert Whitted Airport (15 nm SW)
KPCM - Plant City Airport (17 nm E)
 
Loc | Ops | Rwys | IFR | FBO | Links
Com | Nav | Svcs | Stats | Notes


 
Area around FL38 (Care Flight Heliport)
 
Road maps at: MapQuest Bing Google
 
Aerial photo
No photo
 
Sectional chart

 
Airport distance calculator
Flying to Care Flight Heliport? Find the distance to fly.

From to FL38

Sunrise and sunset
Times for 07-Dec-2019
 Local
(UTC-5)
 Zulu
(UTC)
Morning civil twilight06:4411:44
Sunrise07:0912:09
Sunset17:3322:33
Evening civil twilight17:5922:59

Current date and time
Zulu (UTC)  08-Dec-2019 03:47:07
Local (UTC-5)  07-Dec-2019 22:47:07
 
METAR
KTPA 
2nm W 
080253Z 04006KT 10SM BKN120 BKN340 19/12 A3018 RMK AO2 SLP220 T01890122 53007
KTPF 
5nm SE 
080335Z AUTO 06005KT 10SM CLR 17/13 A3019 RMK AO2
KVDF 
8nm E 
080335Z AUTO 00000KT 10SM OVC100 13/12 A3020 RMK AO2
KMCF 
8nm S 
072256Z AUTO 00000KT 10SM SCT110 17/13 A3013 RMK AO2 SLP206 P0000 T01740127 RVRNO FZRANO $
KPIE 
11nm W 
080253Z 06004KT 10SM SCT120 19/13 A3017 RMK AO2 SLP216 T01890133 53006
KCLW 
14nm W 
080335Z AUTO 00000KT 10SM SCT110 17/12 A3018 RMK AO2
KSPG 
15nm SW 
080253Z AUTO 02004KT 10SM CLR 19/14 A3015 RMK AO2 SLP210 T01890144 53006
KPCM 
17nm E 
080335Z AUTO 00000KT 10SM SCT085 BKN120 14/13 A3021 RMK AO2
TAF
KTPA 
2nm W 
072058Z 0721/0824 25005KT P6SM BKN110 FM072200 33005KT P6SM BKN110 FM080200 06003KT P6SM BKN110 FM081500 08005KT P6SM SCT030 FM082000 20006KT P6SM SCT045
KMCF 
8nm S 
080100Z 0801/0907 VRB06KT 9999 BKN050 QNH3011INS BECMG 0818/0819 VRB06KT 9999 SCT050 QNH3007INS TX26/0820Z TN14/0812Z
KPIE 
11nm W 
071721Z 0718/0818 07005KT P6SM BKN100 FM072100 03006KT P6SM BKN100 FM080200 07006KT P6SM BKN100 FM081500 09006KT P6SM SCT030 SCT100
NOTAMs
Click for the latest NOTAMs
NOTAMs are issued by the DoD/FAA and will open in a separate window not controlled by AirNav.

 

 
 

Would you like to see your business listed on this page?

 If your business provides an interesting product or service to pilots, flight crews, aircraft, or users of the Care Flight Heliport, you should consider listing it here.  To start the listing process, click on the button below
 
Add a business
 

Other Pages about Care Flight Heliport

Update a link
 
Copyright © AirNav, LLC. All rights reserved. Privacy Policy  Contact